createdAt,value
2023-10-11T00:01:23.913Z,0.40
2023-10-11T00:03:25.955Z,0.30
2023-10-11T00:05:37.409Z,0.30
2023-10-11T00:07:39.272Z,0.35
2023-10-11T00:09:40.840Z,0.35
2023-10-11T00:11:42.544Z,0.30
2023-10-11T00:13:44.394Z,0.28
2023-10-11T00:15:50.681Z,0.32
2023-10-11T00:17:52.501Z,0.30
2023-10-11T00:19:54.674Z,0.30
2023-10-11T00:21:56.723Z,0.30
2023-10-11T00:23:58.445Z,0.30
2023-10-11T00:26:01.601Z,0.40
2023-10-11T00:28:03.577Z,0.30
2023-10-11T00:30:07.548Z,0.30
2023-10-11T00:32:10.751Z,0.30
2023-10-11T00:34:13.736Z,0.30
2023-10-11T00:36:25.983Z,0.30
2023-10-11T00:38:30.852Z,0.40
2023-10-11T00:40:34.744Z,0.38
2023-10-11T00:42:36.408Z,0.30
2023-10-11T00:44:39.571Z,0.50
2023-10-11T00:47:07.142Z,0.40
2023-10-11T00:49:13.479Z,0.35
2023-10-11T00:51:15.315Z,0.32
2023-10-11T00:53:17.074Z,0.30
2023-10-11T00:55:23.045Z,0.30
2023-10-11T00:57:24.680Z,0.30
2023-10-11T00:59:26.419Z,0.40
2023-10-11T01:01:28.236Z,0.40
2023-10-11T01:03:34.013Z,0.30
2023-10-11T01:05:44.919Z,0.30
2023-10-11T01:07:47.283Z,0.40
2023-10-11T01:09:48.956Z,0.30
2023-10-11T01:11:50.619Z,0.30
2023-10-11T01:13:52.289Z,0.40
2023-10-11T01:15:54.051Z,0.40
2023-10-11T01:17:55.973Z,0.30
2023-10-11T01:19:57.656Z,0.40
2023-10-11T01:22:00.414Z,0.40
2023-10-11T01:24:02.114Z,0.30
2023-10-11T01:26:08.214Z,0.40
2023-10-11T01:28:10.008Z,0.40
2023-10-11T01:30:12.325Z,0.40
2023-10-11T01:32:14.179Z,0.30
2023-10-11T01:34:16.762Z,0.30
2023-10-11T01:36:24.215Z,0.30
2023-10-11T01:38:25.939Z,0.30
2023-10-11T01:40:32.581Z,0.40
2023-10-11T01:42:34.952Z,0.40
2023-10-11T01:44:37.590Z,0.38
2023-10-11T01:46:41.420Z,0.40
2023-10-11T01:48:46.754Z,0.35
2023-10-11T01:50:48.680Z,0.30
2023-10-11T01:52:50.429Z,0.40
2023-10-11T01:54:52.133Z,0.40
2023-10-11T01:56:53.998Z,0.30
2023-10-11T01:59:02.726Z,0.28
2023-10-11T02:01:06.853Z,0.40
2023-10-11T02:03:13.987Z,0.30
2023-10-11T02:05:16.453Z,0.40
2023-10-11T02:07:18.143Z,0.40
2023-10-11T02:09:23.170Z,0.40
2023-10-11T02:11:26.759Z,0.30
2023-10-11T02:13:28.372Z,0.30
2023-10-11T02:15:30.167Z,0.30
2023-10-11T02:17:34.916Z,0.50
2023-10-11T02:19:36.761Z,0.30
2023-10-11T02:21:44.924Z,0.38
2023-10-11T02:23:47.212Z,0.30
2023-10-11T02:25:49.229Z,0.50
2023-10-11T02:27:51.045Z,0.30
2023-10-11T02:29:52.861Z,0.30
2023-10-11T02:31:55.744Z,0.30
2023-10-11T02:34:05.573Z,0.47
2023-10-11T02:36:11.111Z,0.40
2023-10-11T02:38:19.577Z,0.40
2023-10-11T02:40:24.339Z,0.38
2023-10-11T02:42:26.124Z,0.30
2023-10-11T02:44:28.093Z,0.30
2023-10-11T02:46:34.181Z,0.30
2023-10-11T02:48:35.832Z,0.40
2023-10-11T02:50:37.777Z,0.40
2023-10-11T02:52:41.085Z,0.30
2023-10-11T02:54:43.547Z,0.30
2023-10-11T02:56:48.121Z,0.40
2023-10-11T02:58:51.016Z,0.30
2023-10-11T03:01:11.939Z,0.30
2023-10-11T03:03:18.815Z,0.40
2023-10-11T03:05:22.064Z,0.40
2023-10-11T03:07:24.274Z,0.30
2023-10-11T03:09:30.669Z,0.40
2023-10-11T03:11:34.806Z,0.40
2023-10-11T03:13:43.253Z,0.40
2023-10-11T03:15:45.810Z,0.40
2023-10-11T03:17:54.089Z,0.30
2023-10-11T03:19:56.080Z,0.40
2023-10-11T03:21:57.798Z,0.40
2023-10-11T03:24:05.538Z,0.40
2023-10-11T03:26:09.634Z,0.35
2023-10-11T03:30:18.275Z,0.37
2023-10-11T03:32:20.887Z,0.32
2023-10-11T03:34:22.493Z,0.33
2023-10-11T03:36:44.323Z,0.40
2023-10-11T03:38:55.227Z,0.35
2023-10-11T03:41:09.263Z,0.38
2023-10-11T03:43:17.942Z,0.40
2023-10-11T03:45:22.084Z,0.40
2023-10-11T03:47:26.007Z,0.32
2023-10-11T03:49:30.637Z,0.40
2023-10-11T03:51:33.330Z,0.40
2023-10-11T03:53:34.968Z,0.38
2023-10-11T03:55:46.212Z,0.40
2023-10-11T03:57:51.977Z,0.38
2023-10-11T03:59:54.976Z,0.40
2023-10-11T04:02:02.985Z,0.40
2023-10-11T04:04:06.752Z,0.40
2023-10-11T04:06:15.875Z,0.30
2023-10-11T04:08:26.052Z,0.50
2023-10-11T04:10:40.162Z,0.40
2023-10-11T04:12:43.547Z,0.40
2023-10-11T04:14:48.163Z,0.40
2023-10-11T04:16:51.032Z,0.38
2023-10-11T04:18:53.699Z,0.40
2023-10-11T04:21:16.703Z,0.32
2023-10-11T04:23:18.375Z,0.40
2023-10-11T04:25:26.339Z,0.30
2023-10-11T04:27:28.549Z,0.40
2023-10-11T04:29:33.194Z,0.30
2023-10-11T04:32:11.712Z,0.40
2023-10-11T04:34:15.584Z,0.40
2023-10-11T04:36:21.561Z,0.40
2023-10-11T04:38:23.490Z,0.40
2023-10-11T04:40:34.491Z,0.40
2023-10-11T04:42:36.213Z,0.40
2023-10-11T04:44:58.251Z,0.50
2023-10-11T04:47:00.175Z,0.40
2023-10-11T04:49:18.865Z,0.37
2023-10-11T04:51:24.942Z,0.40
2023-10-11T04:53:34.089Z,0.40
2023-10-11T04:55:36.609Z,0.30
2023-10-11T04:57:50.010Z,0.50
2023-10-11T05:00:01.045Z,0.40
2023-10-11T05:02:09.409Z,0.30
2023-10-11T05:04:15.885Z,0.40
2023-10-11T05:06:31.955Z,0.50
2023-10-11T05:08:52.488Z,0.30
2023-10-11T05:10:56.314Z,0.30
2023-10-11T05:13:07.256Z,0.40
2023-10-11T05:15:09.539Z,0.40
2023-10-11T05:17:24.997Z,0.30
2023-10-11T05:19:33.636Z,0.40
2023-10-11T05:21:39.966Z,0.30
2023-10-11T05:24:05.347Z,0.30
2023-10-11T05:26:26.950Z,0.37
2023-10-11T05:28:28.809Z,0.30
2023-10-11T05:30:31.026Z,0.40
2023-10-11T05:32:42.877Z,0.30
2023-10-11T05:34:51.991Z,0.30
2023-10-11T05:37:12.050Z,0.40
2023-10-11T05:39:32.060Z,0.30
2023-10-11T05:41:52.105Z,0.30
2023-10-11T05:44:12.126Z,0.32
2023-10-11T05:46:32.441Z,0.38
2023-10-11T05:48:52.782Z,0.40
2023-10-11T05:50:57.704Z,0.30
2023-10-11T05:52:59.756Z,0.30
2023-10-11T05:55:07.761Z,0.30
2023-10-11T05:57:09.762Z,0.40
2023-10-11T05:59:12.155Z,0.30
2023-10-11T06:01:15.221Z,0.30
2023-10-11T06:03:17.933Z,0.40
2023-10-11T06:05:25.000Z,0.40
2023-10-11T06:07:33.741Z,0.35
2023-10-11T06:09:44.699Z,0.30
2023-10-11T06:11:51.471Z,0.30
2023-10-11T06:13:53.837Z,0.30
2023-10-11T06:16:00.564Z,0.35
2023-10-11T06:18:02.696Z,0.40
2023-10-11T06:20:22.996Z,0.30
2023-10-11T06:22:30.171Z,0.32
2023-10-11T06:24:36.091Z,0.30
2023-10-11T06:26:37.798Z,0.50
2023-10-11T06:28:40.076Z,0.30
2023-10-11T06:30:48.081Z,0.30
2023-10-11T06:32:51.861Z,0.40
2023-10-11T06:34:53.862Z,0.30
2023-10-11T06:36:56.842Z,0.40
2023-10-11T06:38:59.198Z,0.30
2023-10-11T06:41:21.350Z,0.30
2023-10-11T06:43:24.335Z,0.30
2023-10-11T06:45:29.586Z,0.30
2023-10-11T06:47:36.609Z,0.20
2023-10-11T06:49:41.820Z,0.30
2023-10-11T06:51:43.493Z,0.30
2023-10-11T06:53:47.270Z,0.30
2023-10-11T06:55:49.330Z,0.30
2023-10-11T06:57:52.889Z,0.40
2023-10-11T06:59:58.355Z,0.40
2023-10-11T07:02:00.919Z,0.40
2023-10-11T07:04:03.039Z,0.30
2023-10-11T07:06:11.714Z,0.40
2023-10-11T07:08:21.562Z,0.30
2023-10-11T07:10:29.885Z,0.30
2023-10-11T07:12:40.611Z,0.30
2023-10-11T07:14:43.069Z,0.30
2023-10-11T07:16:45.739Z,0.30
2023-10-11T07:18:48.173Z,0.40
2023-10-11T07:20:50.241Z,0.30
2023-10-11T07:22:52.038Z,0.40
2023-10-11T07:24:57.552Z,0.30
2023-10-11T07:27:09.178Z,0.30
2023-10-11T07:29:14.143Z,0.30
2023-10-11T07:31:18.151Z,0.30
2023-10-11T07:33:20.032Z,0.30
2023-10-11T07:35:28.997Z,0.30
2023-10-11T07:37:30.758Z,0.30
2023-10-11T07:39:36.306Z,0.40
2023-10-11T07:41:43.207Z,0.30
2023-10-11T07:43:46.532Z,0.33
2023-10-11T07:45:51.366Z,0.30
2023-10-11T07:47:56.415Z,0.30
2023-10-11T07:49:58.087Z,0.30
2023-10-11T07:52:00.427Z,0.30
2023-10-11T07:54:08.038Z,0.30
2023-10-11T07:56:10.776Z,0.30
2023-10-11T07:58:12.593Z,0.30
2023-10-11T08:00:20.129Z,0.25
2023-10-11T08:02:28.426Z,0.30
2023-10-11T08:04:30.400Z,0.30
2023-10-11T08:06:32.170Z,0.35
2023-10-11T08:08:33.820Z,0.40
2023-10-11T08:10:35.382Z,0.38
2023-10-11T08:12:39.751Z,0.30
2023-10-11T08:14:46.448Z,0.30
2023-10-11T08:16:50.193Z,0.40
2023-10-11T08:18:54.087Z,0.30
2023-10-11T08:20:58.510Z,0.30
2023-10-11T08:23:00.247Z,0.30
2023-10-11T08:25:02.604Z,0.30
2023-10-11T08:27:09.469Z,0.30
2023-10-11T08:29:29.540Z,0.30
2023-10-11T08:31:41.618Z,0.30
2023-10-11T08:33:43.341Z,0.28
2023-10-11T08:35:49.432Z,0.25
2023-10-11T08:37:54.063Z,0.40
2023-10-11T08:39:56.530Z,0.20
2023-10-11T08:41:59.542Z,0.30
2023-10-11T08:44:03.597Z,0.30
2023-10-11T08:46:10.665Z,0.40
2023-10-11T08:48:13.258Z,0.22
2023-10-11T08:50:19.209Z,0.30
2023-10-11T08:52:24.156Z,0.30
2023-10-11T08:54:27.925Z,0.30
2023-10-11T08:56:29.890Z,0.30
2023-10-11T08:58:31.554Z,0.20
2023-10-11T09:00:35.053Z,0.30
2023-10-11T09:02:36.887Z,0.30
2023-10-11T09:05:00.837Z,0.30
2023-10-11T09:07:03.454Z,0.30
2023-10-11T09:09:05.434Z,0.40
2023-10-11T09:11:07.046Z,0.50
2023-10-11T09:13:12.441Z,0.60
2023-10-11T09:15:16.207Z,0.80
2023-10-11T09:17:20.306Z,0.75
2023-10-11T09:19:22.187Z,0.70
2023-10-11T09:21:24.400Z,0.70
2023-10-11T09:23:39.806Z,0.70
2023-10-11T09:26:05.270Z,0.60
2023-10-11T09:30:28.253Z,0.68
2023-10-11T09:34:36.146Z,0.50
2023-10-11T09:36:38.914Z,0.40
2023-10-11T09:38:40.671Z,0.50
2023-10-11T09:40:42.352Z,0.45
2023-10-11T09:42:45.065Z,0.50
2023-10-11T09:44:47.287Z,0.40
2023-10-11T09:46:49.978Z,0.30
2023-10-11T09:53:02.058Z,0.40
2023-10-11T09:55:10.428Z,0.30
2023-10-11T09:57:49.173Z,0.30
2023-10-11T10:00:04.722Z,0.30
2023-10-11T10:02:46.397Z,0.30
2023-10-11T10:04:53.857Z,0.28
2023-10-11T10:07:22.034Z,0.30
2023-10-11T10:09:23.913Z,0.22
2023-10-11T10:11:25.675Z,0.30
2023-10-11T10:13:27.543Z,0.20
2023-10-11T10:15:37.618Z,0.30
2023-10-11T10:24:31.114Z,0.25
2023-10-11T10:26:33.212Z,0.20
2023-10-11T10:28:38.142Z,0.20
2023-10-11T10:31:13.559Z,0.30
2023-10-11T10:33:19.560Z,0.30
2023-10-11T10:35:21.390Z,0.30
2023-10-11T10:37:47.667Z,0.30
2023-10-11T10:40:26.450Z,0.20
2023-10-11T10:42:28.655Z,0.20
2023-10-11T10:44:31.246Z,0.20
2023-10-11T10:46:33.707Z,0.30
2023-10-11T10:48:41.819Z,0.30
2023-10-11T10:51:05.254Z,0.20
2023-10-11T10:53:06.983Z,0.20
2023-10-11T10:55:09.021Z,0.20
2023-10-11T10:57:10.821Z,0.20
2023-10-11T10:59:13.556Z,0.30
2023-10-11T11:01:22.753Z,0.20
2023-10-11T11:03:24.915Z,0.30
2023-10-11T11:05:32.692Z,0.20
2023-10-11T11:07:34.720Z,0.20
2023-10-11T11:09:36.326Z,0.20
2023-10-11T11:11:41.003Z,0.20
2023-10-11T11:13:42.691Z,0.30
2023-10-11T11:15:45.606Z,0.20
2023-10-11T11:17:51.881Z,0.30
2023-10-11T11:20:23.466Z,0.30
2023-10-11T11:22:26.891Z,0.20
2023-10-11T11:24:35.606Z,0.20
2023-10-11T11:26:39.220Z,0.38
2023-10-11T11:28:47.615Z,0.22
2023-10-11T11:30:52.416Z,0.30
2023-10-11T11:32:54.198Z,0.40
2023-10-11T11:35:03.990Z,0.30
2023-10-11T11:37:15.635Z,0.30
2023-10-11T11:39:28.383Z,0.20
2023-10-11T11:41:30.200Z,0.30
2023-10-11T11:43:35.304Z,0.30
2023-10-11T11:47:57.578Z,0.20
2023-10-11T11:50:04.264Z,0.20
2023-10-11T11:52:06.287Z,0.30
2023-10-11T11:54:17.959Z,0.20
2023-10-11T11:56:19.919Z,0.32
2023-10-11T11:58:23.236Z,0.30
2023-10-11T12:00:25.098Z,0.43
2023-10-11T12:02:27.696Z,0.43
2023-10-11T12:04:30.696Z,0.65
2023-10-11T12:06:36.316Z,0.77
2023-10-11T12:08:38.171Z,0.70
2023-10-11T12:10:39.778Z,0.70
2023-10-11T12:12:41.485Z,0.70
2023-10-11T12:14:43.441Z,0.80
2023-10-11T12:16:47.906Z,0.70
2023-10-11T12:18:49.578Z,0.50
2023-10-11T12:20:52.105Z,0.70
2023-10-11T12:22:53.840Z,0.80
2023-10-11T12:24:59.573Z,0.70
2023-10-11T12:27:01.522Z,0.70
2023-10-11T12:29:05.642Z,0.60
2023-10-11T12:31:07.327Z,0.50
2023-10-11T12:33:09.072Z,0.60
2023-10-11T12:35:14.164Z,0.50
2023-10-11T12:39:24.752Z,0.40
2023-10-11T12:41:26.410Z,0.40
2023-10-11T12:43:30.598Z,0.30
2023-10-11T12:45:32.265Z,0.40
2023-10-11T12:47:33.867Z,0.30
2023-10-11T12:49:35.753Z,0.30
2023-10-11T12:53:44.493Z,0.40
2023-10-11T12:55:50.240Z,0.30
2023-10-11T12:57:51.939Z,0.40
2023-10-11T12:59:53.548Z,0.50
2023-10-11T13:01:56.522Z,0.40
2023-10-11T13:04:09.992Z,0.60
2023-10-11T13:06:12.125Z,0.60
2023-10-11T13:08:15.638Z,0.60
2023-10-11T13:10:17.529Z,0.70
2023-10-11T13:12:19.576Z,0.50
2023-10-11T13:18:39.737Z,0.43
2023-10-11T13:20:42.515Z,0.40
2023-10-11T13:22:44.174Z,0.40
2023-10-11T13:24:48.612Z,0.40
2023-10-11T13:26:52.921Z,0.30
2023-10-11T13:28:55.029Z,0.40
2023-10-11T13:30:56.999Z,0.30
2023-10-11T13:32:58.942Z,0.30
2023-10-11T13:35:03.116Z,0.70
2023-10-11T13:37:05.196Z,1.00
2023-10-11T13:39:26.380Z,2.00
2023-10-11T13:41:29.547Z,2.00
2023-10-11T13:43:31.201Z,1.80
2023-10-11T13:45:32.866Z,1.80
2023-10-11T13:47:38.272Z,1.40
2023-10-11T13:49:41.013Z,1.15
2023-10-11T13:51:42.698Z,0.90
2023-10-11T13:53:44.370Z,0.90
2023-10-11T13:55:48.160Z,0.80
2023-10-11T13:57:53.635Z,0.70
2023-10-11T13:59:56.243Z,0.60
2023-10-11T14:01:57.908Z,0.60
2023-10-11T14:04:09.978Z,0.50
2023-10-11T14:06:44.139Z,1.30
2023-10-11T14:08:45.906Z,2.35
2023-10-11T14:10:47.602Z,2.83
2023-10-11T14:12:49.674Z,2.90
2023-10-11T14:14:51.410Z,2.30
2023-10-11T14:16:53.967Z,1.90
2023-10-11T14:18:56.271Z,1.50
2023-10-11T14:20:58.305Z,1.35
2023-10-11T14:23:04.129Z,1.10
2023-10-11T14:25:08.738Z,1.00
2023-10-11T14:27:10.437Z,0.90
2023-10-11T14:29:12.442Z,0.80
2023-10-11T14:31:23.465Z,0.60
2023-10-11T14:33:25.203Z,0.52
2023-10-11T14:35:28.655Z,0.60
2023-10-11T14:37:30.736Z,0.50
2023-10-11T14:39:33.518Z,0.50
2023-10-11T14:41:38.298Z,0.50
2023-10-11T14:43:40.192Z,0.50
2023-10-11T14:45:42.498Z,0.47
2023-10-11T14:47:46.700Z,0.40
2023-10-11T14:49:48.531Z,0.50
2023-10-11T14:51:50.222Z,0.40
2023-10-11T14:53:51.958Z,0.40
2023-10-11T14:55:56.663Z,0.30
2023-10-11T14:57:58.431Z,0.30
2023-10-11T15:00:00.148Z,0.30
2023-10-11T15:02:05.809Z,0.30
2023-10-11T15:04:15.757Z,0.30
2023-10-11T15:06:20.769Z,0.30
2023-10-11T15:08:22.434Z,0.30
2023-10-11T15:10:25.197Z,0.30
2023-10-11T15:12:27.340Z,0.30
2023-10-11T15:14:29.065Z,0.20
2023-10-11T15:16:31.377Z,0.20
2023-10-11T15:18:37.403Z,0.20
2023-10-11T15:20:39.060Z,0.30
2023-10-11T15:22:45.090Z,0.30
2023-10-11T15:24:46.848Z,0.20
2023-10-11T15:26:48.577Z,0.30
2023-10-11T15:28:52.034Z,0.30
2023-10-11T15:30:54.913Z,0.20
2023-10-11T15:32:56.717Z,0.20
2023-10-11T15:34:58.447Z,0.20
2023-10-11T15:37:00.156Z,0.20
2023-10-11T15:39:01.747Z,0.20
2023-10-11T15:41:06.206Z,0.30
2023-10-11T15:43:07.874Z,0.20
2023-10-11T15:45:10.613Z,0.30
2023-10-11T15:47:12.381Z,0.25
2023-10-11T15:49:14.096Z,0.20
2023-10-11T15:51:20.467Z,0.20
2023-10-11T15:53:23.961Z,0.25
2023-10-11T15:55:25.599Z,0.20
2023-10-11T15:57:27.293Z,0.20
2023-10-11T15:59:32.409Z,0.30
2023-10-11T16:01:34.115Z,0.20
2023-10-11T16:03:43.627Z,0.20
2023-10-11T16:05:48.550Z,0.22
2023-10-11T16:07:50.568Z,0.20
2023-10-11T16:09:53.741Z,0.20
2023-10-11T16:11:55.327Z,0.20
2023-10-11T16:14:01.397Z,0.30
2023-10-11T16:16:04.590Z,0.30
2023-10-11T16:18:10.386Z,0.30
2023-10-11T16:20:12.650Z,0.30
2023-10-11T16:22:14.447Z,0.20
2023-10-11T16:24:16.225Z,0.20
2023-10-11T16:26:18.346Z,0.20
2023-10-11T16:28:20.017Z,0.20
2023-10-11T16:30:24.662Z,0.20
2023-10-11T16:32:26.412Z,0.20
2023-10-11T16:34:28.112Z,0.20
2023-10-11T16:36:29.931Z,0.30
2023-10-11T16:38:35.542Z,0.20
2023-10-11T16:40:37.247Z,0.20
2023-10-11T16:42:38.968Z,0.20
2023-10-11T16:44:40.634Z,0.20
2023-10-11T16:48:49.074Z,0.20
2023-10-11T16:50:50.839Z,0.20
2023-10-11T16:52:52.805Z,0.20
2023-10-11T16:54:57.717Z,0.20
2023-10-11T16:56:59.668Z,0.30
2023-10-11T16:59:01.447Z,0.20
2023-10-11T17:01:03.052Z,0.22
2023-10-11T17:03:05.354Z,0.20
2023-10-11T17:05:08.988Z,0.20
2023-10-11T17:09:18.634Z,0.20
2023-10-11T17:11:20.782Z,0.20
2023-10-11T17:13:22.411Z,0.20
2023-10-11T17:15:26.917Z,0.20
2023-10-11T17:17:28.572Z,0.22
2023-10-11T17:19:30.957Z,0.30
2023-10-11T17:21:34.417Z,0.20
2023-10-11T17:23:36.365Z,0.30
2023-10-11T17:27:40.849Z,0.25
2023-10-11T17:29:42.839Z,0.20
2023-10-11T17:31:44.489Z,0.20
2023-10-11T17:35:53.477Z,0.25
2023-10-11T17:37:55.587Z,0.20
2023-10-11T17:42:06.775Z,0.20
2023-10-11T17:44:08.710Z,0.20
2023-10-11T17:46:11.130Z,0.20
2023-10-11T17:48:15.043Z,0.30
2023-10-11T17:50:18.867Z,0.20
2023-10-11T17:52:20.685Z,0.25
2023-10-11T17:54:22.449Z,0.30
2023-10-11T17:56:25.336Z,0.30
2023-10-11T18:00:39.029Z,0.20
2023-10-11T18:02:40.922Z,0.10
2023-10-11T18:04:44.586Z,0.20
2023-10-11T18:06:47.961Z,0.20
2023-10-11T18:08:50.774Z,0.20
2023-10-11T18:10:52.385Z,0.20
2023-10-11T18:12:57.435Z,0.20
2023-10-11T18:14:59.853Z,0.20
2023-10-11T18:17:01.412Z,0.30
2023-10-11T18:19:03.540Z,0.20
2023-10-11T18:21:06.306Z,0.20
2023-10-11T18:25:17.421Z,0.25
2023-10-11T18:27:21.866Z,0.20
2023-10-11T18:29:24.648Z,0.20
2023-10-11T18:31:26.351Z,0.20
2023-10-11T18:33:28.153Z,0.20
2023-10-11T18:35:29.831Z,0.20
2023-10-11T18:37:31.460Z,0.30
2023-10-11T18:39:35.064Z,0.20
2023-10-11T18:41:36.833Z,0.20
2023-10-11T18:43:38.566Z,0.20
2023-10-11T18:45:40.471Z,0.20
2023-10-11T18:47:43.115Z,0.20
2023-10-11T18:49:44.770Z,0.20
2023-10-11T18:51:46.581Z,0.22
2023-10-11T18:53:48.302Z,0.20
2023-10-11T18:57:56.626Z,0.20
2023-10-11T18:59:58.348Z,0.20
2023-10-11T19:02:00.410Z,0.20
2023-10-11T19:04:02.426Z,0.30
2023-10-11T19:06:13.857Z,0.20
2023-10-11T19:08:15.727Z,0.20
2023-10-11T19:10:20.772Z,0.20
2023-10-11T19:12:22.904Z,0.20
2023-10-11T19:14:24.677Z,0.20
2023-10-11T19:16:27.303Z,0.20
2023-10-11T19:18:29.817Z,0.30
2023-10-11T19:20:31.737Z,0.20
2023-10-11T19:22:33.499Z,0.10
2023-10-11T19:24:39.096Z,0.20
2023-10-11T19:26:40.941Z,0.20
2023-10-11T19:28:42.627Z,0.20
2023-10-11T19:30:44.262Z,0.20
2023-10-11T19:32:46.436Z,0.17
2023-10-11T19:34:49.806Z,0.20
2023-10-11T19:36:52.247Z,0.20
2023-10-11T19:38:53.983Z,0.20
2023-10-11T19:41:03.230Z,0.20
2023-10-11T19:43:07.340Z,0.20
2023-10-11T19:45:16.746Z,0.17
2023-10-11T19:47:18.665Z,0.25
2023-10-11T19:49:20.773Z,0.20
2023-10-11T19:51:22.598Z,0.20
2023-10-11T19:53:25.441Z,0.20
2023-10-11T19:55:30.276Z,0.20
2023-10-11T19:57:32.573Z,0.20
2023-10-11T19:59:35.417Z,0.23
2023-10-11T20:01:37.308Z,0.20
2023-10-11T20:03:39.041Z,0.20
2023-10-11T20:05:41.568Z,0.25
2023-10-11T20:07:44.231Z,0.30
2023-10-11T20:09:46.022Z,0.20
2023-10-11T20:11:47.700Z,0.20
2023-10-11T20:13:49.459Z,0.20
2023-10-11T20:15:51.072Z,0.30
2023-10-11T20:17:53.696Z,0.20
2023-10-11T20:19:57.703Z,0.20
2023-10-11T20:21:59.271Z,0.25
2023-10-11T20:24:01.036Z,0.20
2023-10-11T20:26:09.763Z,0.20
2023-10-11T20:28:11.408Z,0.20
2023-10-11T20:30:19.576Z,0.20
2023-10-11T20:32:21.246Z,0.20
2023-10-11T20:34:22.865Z,0.20
2023-10-11T20:36:24.648Z,0.20
2023-10-11T20:38:26.324Z,0.30
2023-10-11T20:40:28.922Z,0.20
2023-10-11T20:42:31.011Z,0.30
2023-10-11T20:44:33.235Z,0.30
2023-10-11T20:46:35.726Z,0.20
2023-10-11T20:48:38.056Z,0.20
2023-10-11T20:50:42.293Z,0.20
2023-10-11T20:52:51.516Z,0.20
2023-10-11T20:54:53.393Z,0.20
2023-10-11T20:57:02.808Z,0.20
2023-10-11T20:59:10.318Z,0.20
2023-10-11T21:01:13.872Z,0.22
2023-10-11T21:03:17.472Z,0.20
2023-10-11T21:05:19.577Z,0.20
2023-10-11T21:07:21.577Z,0.20
2023-10-11T21:09:23.225Z,0.20
2023-10-11T21:11:24.866Z,0.30
2023-10-11T21:13:29.848Z,0.20
2023-10-11T21:15:31.527Z,0.20
2023-10-11T21:17:33.653Z,0.28
2023-10-11T21:19:35.757Z,0.20
2023-10-11T21:21:38.636Z,0.10
2023-10-11T21:23:43.158Z,0.20
2023-10-11T21:25:50.465Z,0.20
2023-10-11T21:27:53.810Z,0.20
2023-10-11T21:29:55.374Z,0.20
2023-10-11T21:31:57.010Z,0.30
2023-10-11T21:33:58.904Z,0.30
2023-10-11T21:36:00.798Z,0.20
2023-10-11T21:38:03.610Z,0.20
2023-10-11T21:40:08.796Z,0.20
2023-10-11T21:42:10.487Z,0.20
2023-10-11T21:44:12.143Z,0.20
2023-10-11T21:46:14.204Z,0.20
2023-10-11T21:48:15.960Z,0.20
2023-10-11T21:50:18.006Z,0.20
2023-10-11T21:52:19.685Z,0.30
2023-10-11T21:54:21.842Z,0.30
2023-10-11T21:56:23.694Z,0.30
2023-10-11T21:58:25.653Z,0.30
2023-10-11T22:00:46.843Z,0.30
2023-10-11T22:02:48.868Z,0.25
2023-10-11T22:04:51.105Z,0.28
2023-10-11T22:06:52.849Z,0.20
2023-10-11T22:08:55.152Z,0.28
2023-10-11T22:11:00.911Z,0.20
2023-10-11T22:13:05.033Z,0.20
2023-10-11T22:15:07.331Z,0.20
2023-10-11T22:17:09.075Z,0.20
2023-10-11T22:19:16.436Z,0.20
2023-10-11T22:21:18.315Z,0.20
2023-10-11T22:23:21.592Z,0.30
2023-10-11T22:25:25.372Z,0.20
2023-10-11T22:27:27.760Z,0.30
2023-10-11T22:29:29.374Z,0.20
2023-10-11T22:31:31.056Z,0.30
2023-10-11T22:33:33.265Z,0.20
2023-10-11T22:35:39.283Z,0.30
2023-10-11T22:37:41.397Z,0.30
2023-10-11T22:39:43.240Z,0.30
2023-10-11T22:41:44.905Z,0.30
2023-10-11T22:43:46.508Z,0.20
2023-10-11T22:45:48.139Z,0.20
2023-10-11T22:47:50.458Z,0.20
2023-10-11T22:49:52.271Z,0.20
2023-10-11T22:51:56.119Z,0.30
2023-10-11T22:54:01.938Z,0.20
2023-10-11T22:56:04.978Z,0.20
2023-10-11T22:58:06.876Z,0.30
2023-10-11T23:00:17.331Z,0.20
2023-10-11T23:02:19.074Z,0.20
2023-10-11T23:04:20.967Z,0.22
2023-10-11T23:06:22.940Z,0.20
2023-10-11T23:08:27.155Z,0.30
2023-10-11T23:10:28.832Z,0.30
2023-10-11T23:12:30.408Z,0.20
2023-10-11T23:14:32.891Z,0.20
2023-10-11T23:16:36.655Z,0.25
2023-10-11T23:18:44.358Z,0.20
2023-10-11T23:20:59.047Z,0.30
2023-10-11T23:23:12.667Z,0.30
2023-10-11T23:25:27.908Z,0.20
2023-10-11T23:27:29.772Z,0.20
2023-10-11T23:29:40.349Z,0.30
2023-10-11T23:31:42.053Z,0.20
2023-10-11T23:33:50.773Z,0.20
2023-10-11T23:35:53.262Z,0.20
2023-10-11T23:37:57.307Z,0.20
2023-10-11T23:40:34.336Z,0.20
2023-10-11T23:42:35.947Z,0.30
2023-10-11T23:44:43.514Z,0.20
2023-10-11T23:46:59.564Z,0.25
2023-10-11T23:49:07.887Z,0.20
2023-10-11T23:51:16.249Z,0.20
2023-10-11T23:53:20.531Z,0.30
2023-10-11T23:55:26.897Z,0.30
2023-10-11T23:57:33.220Z,0.20
2023-10-11T23:59:46.011Z,0.30
